createdAt,value
2019-06-01T00:00:28.069Z,81.81
2019-06-01T00:01:28.059Z,81.77
2019-06-01T00:02:28.062Z,81.26
2019-06-01T00:03:28.046Z,82.48
2019-06-01T00:04:28.025Z,81.77
2019-06-01T00:05:28.015Z,81.30
2019-06-01T00:06:28.011Z,81.16
2019-06-01T00:07:27.995Z,81.16
2019-06-01T00:08:27.983Z,81.57
2019-06-01T00:09:27.982Z,81.71
2019-06-01T00:10:27.963Z,81.71
2019-06-01T00:11:27.951Z,82.21
2019-06-01T00:12:27.941Z,82.11
2019-06-01T00:13:27.929Z,82.21
2019-06-01T00:14:27.919Z,82.28
2019-06-01T00:15:27.922Z,81.67
2019-06-01T00:16:27.901Z,81.06
2019-06-01T00:17:27.888Z,82.01
2019-06-01T00:18:27.875Z,81.71
2019-06-01T00:19:27.866Z,81.50
2019-06-01T00:20:27.856Z,82.21
2019-06-01T00:21:27.859Z,81.81
2019-06-01T00:22:27.833Z,81.50
2019-06-01T00:23:27.833Z,81.91
2019-06-01T00:24:27.812Z,81.60
2019-06-01T00:25:27.804Z,81.91
2019-06-01T00:26:27.795Z,82.31
2019-06-01T00:27:27.791Z,82.15
2019-06-01T00:28:27.772Z,82.45
2019-06-01T00:29:27.759Z,82.56
2019-06-01T00:30:27.750Z,81.81
2019-06-01T00:31:27.738Z,81.81
2019-06-01T00:32:27.730Z,81.81
2019-06-01T00:33:27.741Z,81.74
2019-06-01T00:34:27.707Z,81.20
2019-06-01T00:35:27.700Z,81.34
2019-06-01T00:36:27.687Z,81.64
2019-06-01T00:37:27.673Z,82.15
2019-06-01T00:38:27.663Z,82.25
2019-06-01T00:39:27.664Z,83.06
2019-06-01T00:40:27.641Z,83.00
2019-06-01T00:41:27.630Z,82.86
2019-06-01T00:42:27.620Z,83.61
2019-06-01T00:43:27.610Z,82.80
2019-06-01T00:44:27.602Z,83.71
2019-06-01T00:45:27.608Z,82.90
2019-06-01T00:46:27.588Z,83.00
2019-06-01T00:47:27.567Z,83.51
2019-06-01T00:48:27.581Z,83.20
2019-06-01T00:49:27.566Z,83.61
2019-06-01T00:50:27.536Z,83.10
2019-06-01T00:51:27.534Z,83.20
2019-06-01T00:52:27.514Z,83.31
2019-06-01T00:53:27.505Z,83.20
2019-06-01T00:54:27.495Z,83.20
2019-06-01T00:55:27.481Z,83.20
2019-06-01T00:56:27.471Z,83.81
2019-06-01T00:57:27.480Z,84.01
2019-06-01T00:58:27.456Z,83.61
2019-06-01T00:59:27.440Z,83.54
2019-06-01T01:00:42.801Z,83.31
2019-06-01T01:01:28.416Z,83.10
2019-06-01T01:02:27.410Z,83.20
2019-06-01T01:03:27.405Z,83.85
2019-06-01T01:04:27.390Z,83.65
2019-06-01T01:05:27.380Z,83.65
2019-06-01T01:06:27.372Z,83.54
2019-06-01T01:07:27.349Z,84.26
2019-06-01T01:08:27.340Z,83.34
2019-06-01T01:09:27.341Z,83.85
2019-06-01T01:10:27.325Z,83.89
2019-06-01T01:11:27.306Z,83.95
2019-06-01T01:12:27.293Z,83.69
2019-06-01T01:13:27.288Z,83.65
2019-06-01T01:14:27.272Z,84.09
2019-06-01T01:15:27.273Z,83.65
2019-06-01T01:16:27.251Z,83.48
2019-06-01T01:17:27.247Z,83.59
2019-06-01T01:18:27.228Z,83.99
2019-06-01T01:19:27.216Z,84.20
2019-06-01T01:20:27.206Z,84.20
2019-06-01T01:21:27.205Z,84.09
2019-06-01T01:22:27.185Z,84.09
2019-06-01T01:23:27.189Z,84.50
2019-06-01T01:24:27.162Z,84.46
2019-06-01T01:25:27.181Z,84.56
2019-06-01T01:26:27.141Z,84.40
2019-06-01T01:27:27.144Z,85.41
2019-06-01T01:28:27.125Z,85.01
2019-06-01T01:29:27.106Z,85.31
2019-06-01T01:30:27.139Z,85.21
2019-06-01T01:31:27.087Z,85.21
2019-06-01T01:32:27.074Z,85.41
2019-06-01T01:33:27.072Z,85.01
2019-06-01T01:34:27.054Z,85.31
2019-06-01T01:35:27.042Z,85.21
2019-06-01T01:36:27.030Z,85.21
2019-06-01T01:37:27.018Z,85.21
2019-06-01T01:38:27.018Z,85.01
2019-06-01T01:39:27.006Z,85.31
2019-06-01T01:40:26.986Z,85.21
2019-06-01T01:41:26.973Z,85.21
2019-06-01T01:42:26.963Z,85.11
2019-06-01T01:43:26.951Z,85.21
2019-06-01T01:44:26.949Z,85.21
2019-06-01T01:45:26.940Z,85.31
2019-06-01T01:46:26.924Z,85.31
2019-06-01T01:47:26.908Z,85.21
2019-06-01T01:48:26.899Z,85.21
2019-06-01T01:49:26.887Z,85.41
2019-06-01T01:50:26.876Z,85.41
2019-06-01T01:51:26.883Z,85.31
2019-06-01T01:52:26.855Z,85.41
2019-06-01T01:53:26.847Z,85.52
2019-06-01T01:54:26.832Z,85.52
2019-06-01T01:55:26.820Z,85.38
2019-06-01T01:56:26.810Z,85.21
2019-06-01T01:57:26.817Z,85.11
2019-06-01T01:58:26.789Z,85.01
2019-06-01T01:59:26.784Z,85.11
2019-06-01T02:00:26.771Z,85.31
2019-06-01T02:01:26.757Z,85.31
2019-06-01T02:02:26.748Z,85.21
2019-06-01T02:03:26.746Z,85.01
2019-06-01T02:04:26.727Z,85.11
2019-06-01T02:05:26.715Z,85.41
2019-06-01T02:06:28.988Z,85.11
2019-06-01T02:07:26.692Z,85.25
2019-06-01T02:08:26.681Z,85.31
2019-06-01T02:09:26.698Z,85.25
2019-06-01T02:10:26.661Z,85.25
2019-06-01T02:11:26.650Z,85.55
2019-06-01T02:12:26.639Z,85.66
2019-06-01T02:13:26.637Z,85.35
2019-06-01T02:14:26.618Z,85.46
2019-06-01T02:15:26.618Z,85.35
2019-06-01T02:16:26.598Z,85.76
2019-06-01T02:17:26.608Z,85.66
2019-06-01T02:18:26.574Z,85.55
2019-06-01T02:19:26.565Z,85.35
2019-06-01T02:20:26.554Z,85.76
2019-06-01T02:21:26.562Z,85.55
2019-06-01T02:22:26.534Z,85.76
2019-06-01T02:23:26.521Z,85.55
2019-06-01T02:24:26.509Z,85.25
2019-06-01T02:25:26.497Z,85.35
2019-06-01T02:26:26.488Z,85.66
2019-06-01T02:27:26.491Z,85.15
2019-06-01T02:28:26.466Z,85.35
2019-06-01T02:29:26.455Z,85.35
2019-06-01T02:30:26.476Z,85.46
2019-06-01T02:31:40.558Z,85.49
2019-06-01T02:32:27.449Z,85.60
2019-06-01T02:33:26.412Z,86.10
2019-06-01T02:34:26.403Z,86.31
2019-06-01T02:35:26.395Z,86.10
2019-06-01T02:36:26.382Z,86.00
2019-06-01T02:37:26.370Z,85.60
2019-06-01T02:38:26.373Z,85.60
2019-06-01T02:39:26.350Z,85.60
2019-06-01T02:40:26.342Z,85.60
2019-06-01T02:41:26.328Z,85.70
2019-06-01T02:42:26.318Z,85.60
2019-06-01T02:43:26.306Z,85.49
2019-06-01T02:44:26.310Z,85.60
2019-06-01T02:45:26.287Z,85.70
2019-06-01T02:46:26.283Z,85.70
2019-06-01T02:47:26.266Z,85.39
2019-06-01T02:48:26.254Z,85.19
2019-06-01T02:49:26.260Z,85.29
2019-06-01T02:50:26.248Z,85.39
2019-06-01T02:51:26.221Z,85.09
2019-06-01T02:52:26.211Z,85.60
2019-06-01T02:53:26.200Z,85.39
2019-06-01T02:54:26.191Z,85.60
2019-06-01T02:55:26.186Z,85.49
2019-06-01T02:56:26.178Z,85.60
2019-06-01T02:57:26.156Z,85.60
2019-06-01T02:58:26.147Z,85.64
2019-06-01T02:59:26.136Z,85.53
2019-06-01T03:00:26.124Z,85.64
2019-06-01T03:01:26.115Z,85.64
2019-06-01T03:02:26.114Z,85.90
2019-06-01T03:03:26.094Z,86.00
2019-06-01T03:04:26.084Z,86.00
2019-06-01T03:05:26.071Z,86.00
2019-06-01T03:06:26.067Z,85.70
2019-06-01T03:07:26.051Z,85.70
2019-06-01T03:08:26.058Z,85.49
2019-06-01T03:09:26.045Z,85.39
2019-06-01T03:10:26.017Z,85.39
2019-06-01T03:11:26.008Z,85.70
2019-06-01T03:12:25.998Z,85.64
2019-06-01T03:13:25.987Z,86.45
2019-06-01T03:14:26.014Z,86.15
2019-06-01T03:15:25.967Z,86.69
2019-06-01T03:16:25.954Z,86.86
2019-06-01T03:17:25.943Z,86.90
2019-06-01T03:18:25.932Z,87.30
2019-06-01T03:19:25.922Z,87.30
2019-06-01T03:20:25.923Z,87.10
2019-06-01T03:21:25.900Z,87.30
2019-06-01T03:22:25.890Z,87.61
2019-06-01T03:23:25.881Z,87.51
2019-06-01T03:24:25.868Z,87.30
2019-06-01T03:25:25.860Z,87.26
2019-06-01T03:26:25.861Z,87.20
2019-06-01T03:27:25.836Z,87.00
2019-06-01T03:28:25.826Z,86.96
2019-06-01T03:29:25.815Z,86.76
2019-06-01T03:30:25.804Z,86.96
2019-06-01T03:31:25.794Z,86.45
2019-06-01T03:32:36.125Z,86.96
2019-06-01T03:33:26.771Z,86.76
2019-06-01T03:34:25.765Z,86.45
2019-06-01T03:35:25.751Z,86.82
2019-06-01T03:36:25.749Z,85.70
2019-06-01T03:37:25.730Z,85.70
2019-06-01T03:38:25.734Z,86.21
2019-06-01T03:39:25.718Z,86.00
2019-06-01T03:40:25.698Z,85.80
2019-06-01T03:41:25.686Z,86.00
2019-06-01T03:42:25.675Z,86.10
2019-06-01T03:43:25.665Z,86.10
2019-06-01T03:44:25.672Z,86.21
2019-06-01T03:45:25.643Z,86.00
2019-06-01T03:46:25.647Z,85.70
2019-06-01T03:47:25.625Z,85.70
2019-06-01T03:48:25.612Z,85.55
2019-06-01T03:49:25.598Z,85.15
2019-06-01T03:50:25.607Z,85.25
2019-06-01T03:51:25.577Z,85.25
2019-06-01T03:52:25.566Z,85.15
2019-06-01T03:53:25.555Z,85.31
2019-06-01T03:54:25.543Z,84.44
2019-06-01T03:55:25.535Z,84.30
2019-06-01T03:56:25.552Z,84.30
2019-06-01T03:57:25.510Z,84.09
2019-06-01T03:58:25.501Z,84.05
2019-06-01T03:59:25.492Z,84.26
2019-06-01T04:00:25.486Z,83.85
2019-06-01T04:01:25.470Z,83.85
2019-06-01T04:02:33.089Z,83.85
2019-06-01T04:03:26.441Z,83.45
2019-06-01T04:04:25.438Z,83.34
2019-06-01T04:05:25.424Z,83.10
2019-06-01T04:06:25.411Z,83.45
2019-06-01T04:07:25.400Z,83.34
2019-06-01T04:08:25.406Z,83.45
2019-06-01T04:09:25.404Z,83.24
2019-06-01T04:10:25.369Z,83.24
2019-06-01T04:11:25.360Z,83.34
2019-06-01T04:12:25.347Z,83.24
2019-06-01T04:13:25.335Z,83.34
2019-06-01T04:14:25.338Z,83.14
2019-06-01T04:15:25.315Z,83.31
2019-06-01T04:16:25.307Z,83.31
2019-06-01T04:17:25.294Z,83.31
2019-06-01T04:18:25.287Z,82.80
2019-06-01T04:19:25.273Z,83.00
2019-06-01T04:20:25.278Z,83.17
2019-06-01T04:21:25.251Z,83.06
2019-06-01T04:22:25.248Z,83.06
2019-06-01T04:23:25.228Z,81.50
2019-06-01T04:24:25.217Z,82.11
2019-06-01T04:25:25.206Z,80.99
2019-06-01T04:26:25.205Z,80.55
2019-06-01T04:27:25.183Z,80.05
2019-06-01T04:28:25.175Z,79.94
2019-06-01T04:29:25.162Z,79.94
2019-06-01T04:30:25.155Z,79.94
2019-06-01T04:31:25.141Z,79.74
2019-06-01T04:32:25.147Z,80.15
2019-06-01T04:33:25.120Z,79.91
2019-06-01T04:34:25.110Z,79.80
2019-06-01T04:35:25.099Z,79.74
2019-06-01T04:36:25.088Z,80.25
2019-06-01T04:37:25.078Z,80.65
2019-06-01T04:38:25.077Z,80.76
2019-06-01T04:39:25.062Z,80.45
2019-06-01T04:40:25.046Z,80.35
2019-06-01T04:41:25.036Z,80.25
2019-06-01T04:42:25.023Z,80.35
2019-06-01T04:43:25.013Z,80.35
2019-06-01T04:44:25.017Z,80.15
2019-06-01T04:45:24.990Z,80.15
2019-06-01T04:46:24.986Z,80.45
2019-06-01T04:47:24.970Z,80.55
2019-06-01T04:48:24.958Z,80.35
2019-06-01T04:49:24.948Z,80.76
2019-06-01T04:50:24.948Z,80.65
2019-06-01T04:51:24.933Z,80.05
2019-06-01T04:52:24.915Z,80.01
2019-06-01T04:53:24.904Z,79.80
2019-06-01T04:54:24.893Z,79.26
2019-06-01T04:55:24.883Z,78.96
2019-06-01T04:56:24.883Z,78.42
2019-06-01T04:57:24.860Z,77.61
2019-06-01T04:58:24.848Z,77.37
2019-06-01T04:59:24.841Z,76.97
2019-06-01T05:00:27.855Z,76.66
2019-06-01T05:01:24.817Z,76.42
2019-06-01T05:02:24.820Z,75.78
2019-06-01T05:03:24.795Z,74.87
2019-06-01T05:04:24.785Z,75.27
2019-06-01T05:05:24.778Z,75.04
2019-06-01T05:06:24.763Z,74.73
2019-06-01T05:07:24.752Z,75.04
2019-06-01T05:08:24.768Z,74.63
2019-06-01T05:09:24.730Z,74.63
2019-06-01T05:10:24.718Z,74.19
2019-06-01T05:11:24.710Z,73.25
2019-06-01T05:12:24.697Z,72.41
2019-06-01T05:13:24.685Z,72.41
2019-06-01T05:14:24.685Z,71.37
2019-06-01T05:15:24.667Z,70.53
2019-06-01T05:16:24.665Z,70.62
2019-06-01T05:17:24.645Z,70.19
2019-06-01T05:18:24.633Z,69.69
2019-06-01T05:19:24.624Z,69.79
2019-06-01T05:20:24.620Z,69.22
2019-06-01T05:21:24.600Z,68.48
2019-06-01T05:22:24.589Z,66.74
2019-06-01T05:23:24.579Z,67.07
2019-06-01T05:24:24.569Z,68.08
2019-06-01T05:25:24.556Z,66.74
2019-06-01T05:26:24.565Z,66.91
2019-06-01T05:27:24.535Z,66.84
2019-06-01T05:28:24.523Z,66.31
2019-06-01T05:29:24.513Z,66.20
2019-06-01T05:30:24.502Z,64.47
2019-06-01T05:31:25.395Z,65.37
2019-06-01T05:32:24.498Z,65.30
2019-06-01T05:33:36.470Z,65.47
2019-06-01T05:34:25.458Z,64.64
2019-06-01T05:35:24.450Z,64.84
2019-06-01T05:36:24.438Z,64.14
2019-06-01T05:37:24.437Z,63.60
2019-06-01T05:38:24.429Z,63.70
2019-06-01T05:39:24.407Z,63.31
2019-06-01T05:40:24.398Z,62.87
2019-06-01T05:41:24.383Z,63.81
2019-06-01T05:42:24.373Z,64.11
2019-06-01T05:43:24.366Z,63.81
2019-06-01T05:44:24.381Z,64.11
2019-06-01T05:45:24.364Z,63.60
2019-06-01T05:46:24.331Z,63.07
2019-06-01T05:47:24.331Z,63.34
2019-06-01T05:48:28.491Z,62.44
2019-06-01T05:49:25.307Z,62.21
2019-06-01T05:50:24.287Z,61.78
2019-06-01T05:51:24.277Z,61.31
2019-06-01T05:52:24.267Z,61.61
2019-06-01T05:53:24.256Z,60.14
2019-06-01T05:54:24.248Z,61.36
2019-06-01T05:55:24.245Z,61.97
2019-06-01T05:56:24.224Z,62.40
2019-06-01T05:57:24.214Z,62.57
2019-06-01T05:58:24.201Z,62.14
2019-06-01T05:59:24.192Z,62.24
2019-06-01T06:00:24.183Z,61.51
2019-06-01T06:01:24.185Z,61.44
2019-06-01T06:02:24.158Z,61.94
2019-06-01T06:03:39.536Z,61.81
2019-06-01T06:04:25.137Z,60.68
2019-06-01T06:05:24.129Z,60.08
2019-06-01T06:06:24.118Z,60.18
2019-06-01T06:07:24.129Z,59.85
2019-06-01T06:08:24.094Z,60.02
2019-06-01T06:09:24.083Z,58.89
2019-06-01T06:10:24.075Z,58.49
2019-06-01T06:11:24.064Z,58.76
2019-06-01T06:12:24.055Z,57.84
2019-06-01T06:13:24.061Z,57.54
2019-06-01T06:14:24.031Z,56.94
2019-06-01T06:15:24.022Z,56.61
2019-06-01T06:16:24.011Z,56.88
2019-06-01T06:17:24.395Z,56.18
2019-06-01T06:18:23.991Z,55.99
2019-06-01T06:19:23.989Z,55.56
2019-06-01T06:20:23.967Z,55.66
2019-06-01T06:21:23.957Z,53.94
2019-06-01T06:22:23.947Z,53.44
2019-06-01T06:23:23.937Z,55.33
2019-06-01T06:24:23.926Z,54.21
2019-06-01T06:25:28.209Z,53.52
2019-06-01T06:26:24.904Z,53.81
2019-06-01T06:27:23.897Z,54.41
2019-06-01T06:28:26.618Z,54.58
2019-06-01T06:29:23.875Z,54.11
2019-06-01T06:30:23.862Z,53.09
2019-06-01T06:31:23.866Z,53.16
2019-06-01T06:32:23.842Z,53.09
2019-06-01T06:33:23.830Z,52.57
2019-06-01T06:34:23.820Z,52.86
2019-06-01T06:35:23.809Z,53.44
2019-06-01T06:36:23.895Z,52.74
2019-06-01T06:37:23.942Z,52.34
2019-06-01T06:38:24.062Z,51.65
2019-06-01T06:39:24.239Z,51.35
2019-06-01T06:40:24.290Z,51.75
2019-06-01T06:41:24.462Z,51.65
2019-06-01T06:42:24.475Z,52.04
2019-06-01T06:43:32.438Z,52.34
2019-06-01T06:44:24.880Z,52.24
2019-06-01T06:45:24.853Z,51.95
2019-06-01T06:46:24.828Z,52.44
2019-06-01T06:47:23.961Z,52.84
2019-06-01T06:48:23.675Z,52.74
2019-06-01T06:49:23.687Z,52.51
2019-06-01T06:50:23.672Z,52.44
2019-06-01T06:51:23.649Z,52.22
2019-06-01T06:52:23.727Z,52.04
2019-06-01T06:53:32.650Z,51.82
2019-06-01T06:54:25.931Z,52.12
2019-06-01T06:55:24.052Z,52.54
2019-06-01T06:56:24.030Z,52.72
2019-06-01T06:57:24.234Z,52.42
2019-06-01T06:58:24.457Z,51.62
2019-06-01T06:59:24.606Z,51.52
2019-06-01T07:00:24.809Z,51.84
2019-06-01T07:01:24.775Z,51.65
2019-06-01T07:02:23.534Z,52.04
2019-06-01T07:03:23.521Z,51.52
2019-06-01T07:04:23.524Z,51.92
2019-06-01T07:05:23.553Z,51.62
2019-06-01T07:06:23.689Z,50.52
2019-06-01T07:07:23.792Z,51.03
2019-06-01T07:08:23.897Z,51.35
2019-06-01T07:09:24.070Z,51.35
2019-06-01T07:10:24.253Z,51.75
2019-06-01T07:11:23.530Z,51.57
2019-06-01T07:12:23.440Z,52.27
2019-06-01T07:13:23.473Z,52.86
2019-06-01T07:14:23.568Z,52.37
2019-06-01T07:15:23.521Z,52.19
2019-06-01T07:16:23.530Z,52.79
2019-06-01T07:17:23.601Z,53.09
2019-06-01T07:18:23.739Z,52.37
2019-06-01T07:19:23.775Z,52.86
2019-06-01T07:20:23.694Z,52.47
2019-06-01T07:21:23.765Z,52.17
2019-06-01T07:22:23.821Z,52.07
2019-06-01T07:23:23.851Z,52.47
2019-06-01T07:24:23.928Z,52.54
2019-06-01T07:25:23.296Z,51.35
2019-06-01T07:26:24.084Z,51.42
2019-06-01T07:27:24.121Z,50.73
2019-06-01T07:28:24.138Z,51.12
2019-06-01T07:29:24.199Z,50.50
2019-06-01T07:30:24.242Z,51.92
2019-06-01T07:31:24.229Z,50.60
2019-06-01T07:32:24.626Z,51.20
2019-06-01T07:33:24.293Z,50.50
2019-06-01T07:34:35.562Z,51.52
2019-06-01T07:35:24.480Z,50.63
2019-06-01T07:36:24.399Z,51.12
2019-06-01T07:37:24.358Z,51.72
2019-06-01T07:38:24.521Z,51.84
2019-06-01T07:39:24.454Z,51.82
2019-06-01T07:40:23.138Z,51.42
2019-06-01T07:41:23.141Z,51.62
2019-06-01T07:42:24.770Z,52.44
2019-06-01T07:43:23.105Z,51.25
2019-06-01T07:44:23.096Z,51.57
2019-06-01T07:45:23.084Z,52.44
2019-06-01T07:46:23.076Z,52.04
2019-06-01T07:47:23.074Z,51.72
2019-06-01T07:48:23.181Z,51.62
2019-06-01T07:49:23.301Z,51.32
2019-06-01T07:50:23.934Z,51.72
2019-06-01T07:51:23.254Z,51.25
2019-06-01T07:52:24.110Z,50.93
2019-06-01T07:53:24.061Z,51.82
2019-06-01T07:54:24.748Z,51.45
2019-06-01T07:55:23.505Z,51.75
2019-06-01T07:56:24.011Z,51.72
2019-06-01T07:57:23.560Z,51.10
2019-06-01T07:58:22.949Z,51.20
2019-06-01T07:59:24.421Z,50.40
2019-06-01T08:00:24.051Z,50.10
2019-06-01T08:01:24.976Z,51.12
2019-06-01T08:02:25.864Z,50.93
2019-06-01T08:03:26.084Z,51.72
2019-06-01T08:04:24.647Z,51.84
2019-06-01T08:05:24.727Z,51.52
2019-06-01T08:06:23.980Z,51.62
2019-06-01T08:07:23.368Z,52.02
2019-06-01T08:08:23.360Z,52.02
2019-06-01T08:09:24.517Z,51.12
2019-06-01T08:10:24.442Z,50.01
2019-06-01T08:11:25.004Z,51.00
2019-06-01T08:12:23.797Z,51.10
2019-06-01T08:13:23.420Z,51.10
2019-06-01T08:14:22.777Z,51.20
2019-06-01T08:15:23.551Z,51.89
2019-06-01T08:16:23.676Z,51.70
2019-06-01T08:17:24.073Z,51.50
2019-06-01T08:18:23.889Z,50.80
2019-06-01T08:19:23.848Z,51.00
2019-06-01T08:20:23.866Z,50.70
2019-06-01T08:21:23.894Z,50.68
2019-06-01T08:22:23.769Z,51.07
2019-06-01T08:23:23.789Z,51.47
2019-06-01T08:24:22.672Z,50.48
2019-06-01T08:25:22.664Z,50.08
2019-06-01T08:26:22.667Z,50.88
2019-06-01T08:27:22.643Z,50.98
2019-06-01T08:28:22.645Z,50.78
2019-06-01T08:29:22.746Z,50.88
2019-06-01T08:30:22.647Z,50.78
2019-06-01T08:31:22.650Z,50.78
2019-06-01T08:32:22.747Z,50.70
2019-06-01T08:33:26.602Z,50.90
2019-06-01T08:34:24.703Z,50.90
2019-06-01T08:35:22.850Z,50.82
2019-06-01T08:36:23.174Z,51.92
2019-06-01T08:37:23.476Z,52.49
2019-06-01T08:38:23.345Z,52.19
2019-06-01T08:39:23.485Z,51.62
2019-06-01T08:40:23.311Z,51.03
2019-06-01T08:41:23.394Z,52.34
2019-06-01T08:42:23.439Z,52.44
2019-06-01T08:43:23.547Z,52.44
2019-06-01T08:44:23.551Z,52.14
2019-06-01T08:45:23.539Z,52.76
2019-06-01T08:46:23.631Z,52.64
2019-06-01T08:47:23.568Z,52.81
2019-06-01T08:48:23.580Z,51.12
2019-06-01T08:49:23.803Z,51.89
2019-06-01T08:50:23.726Z,51.30
2019-06-01T08:51:23.845Z,51.30
2019-06-01T08:52:23.775Z,51.20
2019-06-01T08:53:22.370Z,51.60
2019-06-01T08:54:22.361Z,51.07
2019-06-01T08:55:22.350Z,51.07
2019-06-01T08:56:22.341Z,51.17
2019-06-01T08:57:22.331Z,50.56
2019-06-01T08:58:22.331Z,51.35
2019-06-01T08:59:22.320Z,50.65
2019-06-01T09:00:22.300Z,50.35
2019-06-01T09:01:22.288Z,50.16
2019-06-01T09:02:22.304Z,50.53
2019-06-01T09:03:22.281Z,51.03
2019-06-01T09:04:22.267Z,50.83
2019-06-01T09:05:25.830Z,50.60
2019-06-01T09:06:22.235Z,49.61
2019-06-01T09:07:22.226Z,49.32
2019-06-01T09:08:23.951Z,48.35
2019-06-01T09:09:22.202Z,49.14
2019-06-01T09:10:22.204Z,49.26
2019-06-01T09:11:22.182Z,49.76
2019-06-01T09:12:22.171Z,51.05
2019-06-01T09:13:22.160Z,50.65
2019-06-01T09:14:22.150Z,50.65
2019-06-01T09:15:22.139Z,51.05
2019-06-01T09:16:22.140Z,49.76
2019-06-01T09:17:22.118Z,50.58
2019-06-01T09:18:22.116Z,50.45
2019-06-01T09:19:22.098Z,50.18
2019-06-01T09:20:22.089Z,50.58
2019-06-01T09:21:22.075Z,51.77
2019-06-01T09:22:22.078Z,50.88
2019-06-01T09:23:22.054Z,51.37
2019-06-01T09:24:22.084Z,51.47
2019-06-01T09:25:22.041Z,50.88
2019-06-01T09:26:22.023Z,51.47
2019-06-01T09:27:22.012Z,51.07
2019-06-01T09:28:22.036Z,51.05
2019-06-01T09:29:21.993Z,51.05
2019-06-01T09:30:21.984Z,51.05
2019-06-01T09:31:21.990Z,50.75
2019-06-01T09:32:21.960Z,49.84
2019-06-01T09:33:21.948Z,50.03
2019-06-01T09:34:21.949Z,50.21
2019-06-01T09:35:21.929Z,49.44
2019-06-01T09:36:21.918Z,50.33
2019-06-01T09:37:21.907Z,50.65
2019-06-01T09:38:21.901Z,50.43
2019-06-01T09:39:21.889Z,49.44
2019-06-01T09:40:21.886Z,49.84
2019-06-01T09:41:21.869Z,49.44
2019-06-01T09:42:21.858Z,51.62
2019-06-01T09:43:21.849Z,49.51
2019-06-01T09:44:21.839Z,49.04
2019-06-01T09:45:21.825Z,48.82
2019-06-01T09:46:21.826Z,50.01
2019-06-01T09:47:21.805Z,48.52
2019-06-01T09:48:21.794Z,48.72
2019-06-01T09:49:21.784Z,49.71
2019-06-01T09:50:21.791Z,49.21
2019-06-01T09:51:21.764Z,49.99
2019-06-01T09:52:21.765Z,47.23
2019-06-01T09:53:21.744Z,48.72
2019-06-01T09:54:21.733Z,48.52
2019-06-01T09:55:21.725Z,48.92
2019-06-01T09:56:21.712Z,48.42
2019-06-01T09:57:21.703Z,48.72
2019-06-01T09:58:21.702Z,48.30
2019-06-01T09:59:21.685Z,48.13
2019-06-01T10:00:21.672Z,49.29
2019-06-01T10:01:21.662Z,48.72
2019-06-01T10:02:21.650Z,48.82
2019-06-01T10:03:21.640Z,47.63
2019-06-01T10:04:21.641Z,48.32
2019-06-01T10:05:21.619Z,48.42
2019-06-01T10:06:21.610Z,48.82
2019-06-01T10:07:21.601Z,49.11
2019-06-01T10:08:21.589Z,49.54
2019-06-01T10:09:21.577Z,49.04
2019-06-01T10:10:21.596Z,49.63
2019-06-01T10:11:21.558Z,49.14
2019-06-01T10:12:21.575Z,49.34
2019-06-01T10:13:21.540Z,48.84
2019-06-01T10:14:21.525Z,49.24
2019-06-01T10:15:21.518Z,48.35
2019-06-01T10:16:21.516Z,49.44
2019-06-01T10:17:21.496Z,49.63
2019-06-01T10:18:21.487Z,49.44
2019-06-01T10:19:21.474Z,50.21
2019-06-01T10:20:21.470Z,49.41
2019-06-01T10:21:21.451Z,48.52
2019-06-01T10:22:21.469Z,49.19
2019-06-01T10:23:21.431Z,49.49
2019-06-01T10:24:21.431Z,48.10
2019-06-01T10:25:21.416Z,48.90
2019-06-01T10:26:21.412Z,48.57
2019-06-01T10:27:21.392Z,48.50
2019-06-01T10:28:21.397Z,48.20
2019-06-01T10:29:21.372Z,47.41
2019-06-01T10:30:21.376Z,47.31
2019-06-01T10:31:21.353Z,47.23
2019-06-01T10:32:21.347Z,48.13
2019-06-01T10:33:21.331Z,48.82
2019-06-01T10:34:21.332Z,48.32
2019-06-01T10:35:21.312Z,49.21
2019-06-01T10:36:21.733Z,48.22
2019-06-01T10:37:21.306Z,49.21
2019-06-01T10:38:21.279Z,48.62
2019-06-01T10:39:21.274Z,48.32
2019-06-01T10:40:21.270Z,48.84
2019-06-01T10:41:21.253Z,48.72
2019-06-01T10:42:21.239Z,49.71
2019-06-01T10:43:21.228Z,48.32
2019-06-01T10:44:21.217Z,48.13
2019-06-01T10:45:21.303Z,48.92
2019-06-01T10:46:21.215Z,49.71
2019-06-01T10:47:21.187Z,49.32
2019-06-01T10:48:21.182Z,48.82
2019-06-01T10:49:21.167Z,49.51
2019-06-01T10:50:21.158Z,48.92
2019-06-01T10:51:21.228Z,48.42
2019-06-01T10:52:21.160Z,48.32
2019-06-01T10:53:21.128Z,48.25
2019-06-01T10:54:21.113Z,49.11
2019-06-01T10:55:21.104Z,48.32
2019-06-01T10:56:21.094Z,48.02
2019-06-01T10:57:21.084Z,48.62
2019-06-01T10:58:21.090Z,48.90
2019-06-01T10:59:21.061Z,49.32
2019-06-01T11:00:37.048Z,48.82
2019-06-01T11:01:22.039Z,48.32
2019-06-01T11:02:21.030Z,49.32
2019-06-01T11:03:21.025Z,49.81
2019-06-01T11:04:21.021Z,50.40
2019-06-01T11:05:20.998Z,49.32
2019-06-01T11:06:36.182Z,49.91
2019-06-01T11:07:21.977Z,50.11
2019-06-01T11:08:20.966Z,49.11
2019-06-01T11:09:20.961Z,49.49
2019-06-01T11:10:20.957Z,49.09
2019-06-01T11:11:20.935Z,48.69
2019-06-01T11:12:20.924Z,49.21
2019-06-01T11:13:20.916Z,48.62
2019-06-01T11:14:20.902Z,48.60
2019-06-01T11:15:20.899Z,49.09
2019-06-01T11:16:20.893Z,49.49
2019-06-01T11:17:20.874Z,49.39
2019-06-01T11:18:20.859Z,49.19
2019-06-01T11:19:20.852Z,48.40
2019-06-01T11:20:20.841Z,48.30
2019-06-01T11:21:20.828Z,48.40
2019-06-01T11:22:20.828Z,48.10
2019-06-01T11:23:20.815Z,48.47
2019-06-01T11:24:20.796Z,48.27
2019-06-01T11:25:20.785Z,48.87
2019-06-01T11:26:20.777Z,49.17
2019-06-01T11:27:20.763Z,48.27
2019-06-01T11:28:20.766Z,48.97
2019-06-01T11:29:20.751Z,48.67
2019-06-01T11:30:20.733Z,48.27
2019-06-01T11:31:20.722Z,47.58
2019-06-01T11:32:20.713Z,46.39
2019-06-01T11:33:20.702Z,46.98
2019-06-01T11:34:20.701Z,47.38
2019-06-01T11:35:20.681Z,47.38
2019-06-01T11:36:20.672Z,46.89
2019-06-01T11:37:20.678Z,47.58
2019-06-01T11:38:20.649Z,47.36
2019-06-01T11:39:20.638Z,46.17
2019-06-01T11:40:20.668Z,47.06
2019-06-01T11:41:20.618Z,46.47
2019-06-01T11:42:20.609Z,46.77
2019-06-01T11:43:20.596Z,48.45
2019-06-01T11:44:20.587Z,48.35
2019-06-01T11:45:20.575Z,46.86
2019-06-01T11:46:20.578Z,47.56
2019-06-01T11:47:20.557Z,46.47
2019-06-01T11:48:20.544Z,47.36
2019-06-01T11:49:21.510Z,47.06
2019-06-01T11:50:20.524Z,47.86
2019-06-01T11:51:20.513Z,48.53
2019-06-01T11:52:20.513Z,46.05
2019-06-01T11:53:20.497Z,46.74
2019-06-01T11:54:20.489Z,45.75
2019-06-01T11:55:20.471Z,45.65
2019-06-01T11:56:20.460Z,46.45
2019-06-01T11:57:20.451Z,46.94
2019-06-01T11:58:20.475Z,46.77
2019-06-01T11:59:21.293Z,46.86
2019-06-01T12:00:20.421Z,46.07
2019-06-01T12:01:20.427Z,46.64
2019-06-01T12:02:20.397Z,46.74
2019-06-01T12:03:20.388Z,46.05
2019-06-01T12:04:20.390Z,46.55
2019-06-01T12:05:20.366Z,46.45
2019-06-01T12:06:20.355Z,47.53
2019-06-01T12:07:20.348Z,46.55
2019-06-01T12:08:20.334Z,46.15
2019-06-01T12:09:20.323Z,46.74
2019-06-01T12:10:20.326Z,46.67
2019-06-01T12:11:20.303Z,46.77
2019-06-01T12:12:20.291Z,46.15
2019-06-01T12:13:20.284Z,46.37
2019-06-01T12:14:20.273Z,47.14
2019-06-01T12:15:20.263Z,46.74
2019-06-01T12:16:20.261Z,46.74
2019-06-01T12:17:20.239Z,46.67
2019-06-01T12:18:20.230Z,45.36
2019-06-01T12:19:20.220Z,46.77
2019-06-01T12:20:20.208Z,46.67
2019-06-01T12:21:20.200Z,46.07
2019-06-01T12:22:20.198Z,46.57
2019-06-01T12:23:20.176Z,46.27
2019-06-01T12:24:25.545Z,46.27
2019-06-01T12:25:21.156Z,46.64
2019-06-01T12:26:20.146Z,46.74
2019-06-01T12:27:20.142Z,45.06
2019-06-01T12:28:20.137Z,45.45
2019-06-01T12:29:20.116Z,45.56
2019-06-01T12:30:20.457Z,45.36
2019-06-01T12:31:20.093Z,45.36
2019-06-01T12:32:20.092Z,45.56
2019-06-01T12:33:20.074Z,46.05
2019-06-01T12:34:20.072Z,46.35
2019-06-01T12:35:20.055Z,46.52
2019-06-01T12:36:20.040Z,45.63
2019-06-01T12:37:34.510Z,45.34
2019-06-01T12:38:21.017Z,46.33
2019-06-01T12:39:20.009Z,46.12
2019-06-01T12:40:20.094Z,46.62
2019-06-01T12:41:19.988Z,45.43
2019-06-01T12:42:19.977Z,45.26
2019-06-01T12:43:19.965Z,43.95
2019-06-01T12:44:19.957Z,45.43
2019-06-01T12:45:22.729Z,45.04
2019-06-01T12:46:19.946Z,44.94
2019-06-01T12:47:19.924Z,45.53
2019-06-01T12:48:19.918Z,45.93
2019-06-01T12:49:19.903Z,45.71
2019-06-01T12:50:19.922Z,46.70
2019-06-01T12:51:19.883Z,45.61
2019-06-01T12:52:19.886Z,45.51